Time;durP1;ratioP1;P1;durP2;ratioP2;P2;SDS_P1;SDS_P2;PMS_P1;PMS_P2;Temp;Humidity;BMP_temperature;BMP_pressure;BME280_temperature;BME280_humidity;BME280_pressure;Samples;Min_cycle;Max_cycle;Signal;HPM_P1;HPM_P2
2022/08/21 00:00:51;;;;;;;3.83;1.95;;;14.00;99.90;;;;;;5046346;28;20048;-80
2022/08/21 00:03:17;;;;;;;4.97;2.03;;;14.00;99.90;;;;;;5062366;28;20487;-80
2022/08/21 00:05:46;;;;;;;4.97;2.20;;;14.00;99.90;;;;;;5062316;28;20090;-79
2022/08/21 00:08:13;;;;;;;3.22;1.88;;;14.00;99.90;;;;;;5062598;28;20348;-79
2022/08/21 00:10:40;;;;;;;3.08;1.85;;;13.90;99.90;;;;;;5064258;28;20363;-79
2022/08/21 00:13:06;;;;;;;5.43;1.90;;;13.90;99.90;;;;;;5045836;28;20078;-79
2022/08/21 00:15:35;;;;;;;4.75;1.95;;;13.80;99.90;;;;;;5026992;28;20490;-79
2022/08/21 00:18:01;;;;;;;5.43;2.35;;;13.80;99.90;;;;;;5063847;28;20047;-79
2022/08/21 00:20:26;;;;;;;5.55;1.80;;;13.80;99.90;;;;;;5063802;28;20037;-79
2022/08/21 00:22:52;;;;;;;4.97;2.00;;;13.80;99.90;;;;;;5045852;28;20131;-79
2022/08/21 00:25:20;;;;;;;4.65;2.08;;;13.80;99.90;;;;;;5045546;28;20547;-79
2022/08/21 00:27:46;;;;;;;2.90;1.60;;;13.80;99.90;;;;;;5065767;28;20084;-79
2022/08/21 00:30:15;;;;;;;3.20;1.83;;;13.80;99.90;;;;;;5048910;28;20116;-79
2022/08/21 00:32:42;;;;;;;5.07;1.80;;;13.70;99.90;;;;;;5061866;28;20093;-79
2022/08/21 00:35:25;;;;;;;4.30;1.70;;;13.70;99.90;;;;;;5061729;28;20049;-79
2022/08/21 00:37:51;;;;;;;3.72;1.70;;;13.70;99.90;;;;;;5051525;28;20486;-79
2022/08/21 00:40:23;;;;;;;3.67;1.90;;;13.70;99.90;;;;;;5067727;28;20047;-79
2022/08/21 00:42:49;;;;;;;3.17;1.90;;;13.70;99.90;;;;;;5061776;28;20040;-80
2022/08/21 00:45:16;;;;;;;2.65;1.73;;;13.60;99.90;;;;;;5066041;28;20170;-79
2022/08/21 00:47:42;;;;;;;3.92;2.17;;;13.60;99.90;;;;;;5045029;28;20044;-80
2022/08/21 00:50:09;;;;;;;3.63;1.70;;;13.60;99.90;;;;;;5061717;28;20132;-80
2022/08/21 00:52:36;;;;;;;3.88;2.05;;;13.60;99.90;;;;;;5061969;28;20098;-80
2022/08/21 00:55:07;;;;;;;3.85;1.90;;;13.60;99.90;;;;;;5061536;28;20076;-81
2022/08/21 00:57:39;;;;;;;4.20;2.13;;;13.60;99.90;;;;;;5061508;28;20036;-81
2022/08/21 01:00:08;;;;;;;4.15;2.20;;;13.50;99.90;;;;;;5061480;28;20517;-81
2022/08/21 01:02:34;;;;;;;5.90;2.47;;;13.50;99.90;;;;;;5060868;28;20739;-81
2022/08/21 01:05:00;;;;;;;4.00;2.40;;;13.50;99.90;;;;;;5044404;28;20076;-81
2022/08/21 01:07:26;;;;;;;7.45;2.58;;;13.50;99.90;;;;;;5064365;28;20036;-81
2022/08/21 01:09:51;;;;;;;3.78;1.90;;;13.50;99.90;;;;;;5062234;28;20037;-81
2022/08/21 01:12:18;;;;;;;3.30;2.00;;;13.50;99.90;;;;;;5066229;28;20033;-79
2022/08/21 01:14:44;;;;;;;7.18;2.72;;;13.50;99.90;;;;;;5058384;28;20391;-79
2022/08/21 01:17:12;;;;;;;5.82;2.30;;;13.50;99.90;;;;;;5041930;28;20501;-79
2022/08/21 01:19:38;;;;;;;3.92;2.03;;;13.50;99.90;;;;;;5061767;28;20051;-79
2022/08/21 01:22:04;;;;;;;7.07;2.88;;;13.50;99.90;;;;;;5047592;28;20093;-79
2022/08/21 01:24:31;;;;;;;5.80;2.10;;;13.60;99.90;;;;;;5061142;28;20445;-79
2022/08/21 01:26:59;;;;;;;3.83;2.10;;;13.50;99.90;;;;;;5067082;28;20041;-81
2022/08/21 01:29:35;;;;;;;2.97;1.70;;;13.60;99.90;;;;;;5042469;28;20123;-81
2022/08/21 01:32:11;;;;;;;5.75;1.90;;;13.60;99.90;;;;;;5069845;28;20115;-81
2022/08/21 01:34:39;;;;;;;6.10;2.40;;;13.60;99.90;;;;;;5065577;28;20064;-81
2022/08/21 01:37:05;;;;;;;8.73;2.35;;;13.60;99.90;;;;;;5047266;28;20087;-81
2022/08/21 01:39:32;;;;;;;4.15;2.10;;;13.70;99.90;;;;;;5044708;28;20103;-81
2022/08/21 01:41:57;;;;;;;4.45;1.70;;;13.70;99.90;;;;;;5044471;28;20498;-81
2022/08/21 01:44:24;;;;;;;3.17;1.98;;;13.70;99.90;;;;;;5064348;28;20087;-81
2022/08/21 01:46:51;;;;;;;4.45;2.47;;;13.70;99.90;;;;;;5051163;28;20033;-81
2022/08/21 01:49:17;;;;;;;5.65;2.20;;;13.70;99.90;;;;;;5065351;28;20099;-81
2022/08/21 01:51:43;;;;;;;3.92;2.03;;;13.70;99.90;;;;;;5065304;28;20055;-81
2022/08/21 01:54:09;;;;;;;3.92;1.73;;;13.70;99.90;;;;;;5061654;28;20486;-81
2022/08/21 01:56:41;;;;;;;5.00;2.33;;;13.70;99.90;;;;;;5048327;28;20056;-81
2022/08/21 01:59:07;;;;;;;4.05;2.20;;;13.70;99.90;;;;;;5064754;28;20048;-81
2022/08/21 02:01:33;;;;;;;6.05;3.15;;;13.70;99.90;;;;;;5049372;28;20064;-80
2022/08/21 02:03:59;;;;;;;3.92;2.10;;;13.70;99.90;;;;;;5048458;28;20110;-81
2022/08/21 02:06:26;;;;;;;5.15;2.60;;;13.70;99.90;;;;;;5052202;28;20047;-81
2022/08/21 02:08:52;;;;;;;6.22;2.55;;;13.70;99.90;;;;;;5067381;28;20037;-81
2022/08/21 02:11:18;;;;;;;4.95;2.38;;;13.80;99.90;;;;;;5067164;28;20483;-81
2022/08/21 02:13:44;;;;;;;4.78;2.90;;;13.80;99.90;;;;;;5049841;28;20285;-81
2022/08/21 02:16:11;;;;;;;6.95;3.05;;;13.80;99.90;;;;;;5049523;28;20051;-81
2022/08/21 02:18:37;;;;;;;6.72;2.70;;;13.80;99.90;;;;;;5068373;28;20047;-79
2022/08/21 02:21:05;;;;;;;5.47;2.70;;;13.80;99.90;;;;;;5064145;28;20040;-80
2022/08/21 02:23:30;;;;;;;6.38;3.17;;;13.80;99.90;;;;;;5063984;28;20375;-80
2022/08/21 02:25:58;;;;;;;5.45;2.85;;;13.80;99.90;;;;;;5064141;28;20071;-80
2022/08/21 02:28:23;;;;;;;4.57;2.70;;;13.80;99.90;;;;;;5049269;28;20044;-80
2022/08/21 02:30:50;;;;;;;4.95;2.50;;;13.80;99.90;;;;;;5063787;28;20128;-80
2022/08/21 02:33:16;;;;;;;4.15;2.42;;;13.80;99.90;;;;;;5063602;28;20052;-80
2022/08/21 02:35:43;;;;;;;4.13;2.40;;;13.80;99.90;;;;;;5049801;28;20044;-81
2022/08/21 02:38:13;;;;;;;4.72;2.72;;;13.70;99.90;;;;;;5064481;28;20375;-81
2022/08/21 02:40:40;;;;;;;5.13;2.58;;;13.80;99.90;;;;;;5069176;28;20402;-81
2022/08/21 02:43:07;;;;;;;3.75;2.30;;;13.80;99.90;;;;;;5063958;28;20052;-80
2022/08/21 02:45:34;;;;;;;7.03;2.33;;;13.80;99.90;;;;;;5064357;28;20036;-81
2022/08/21 02:48:03;;;;;;;5.03;2.70;;;13.80;99.90;;;;;;5045648;28;20409;-81
2022/08/21 02:50:32;;;;;;;7.25;2.15;;;13.80;99.90;;;;;;5047351;28;20060;-79
2022/08/21 02:52:59;;;;;;;4.38;2.22;;;13.80;99.90;;;;;;5064276;28;20394;-79
2022/08/21 02:55:27;;;;;;;4.50;2.20;;;13.80;99.90;;;;;;5064090;28;20059;-79
2022/08/21 02:57:54;;;;;;;5.47;2.60;;;13.90;99.90;;;;;;5064409;28;20040;-79
2022/08/21 03:00:22;;;;;;;3.28;1.92;;;13.90;99.90;;;;;;5065204;28;20047;-79
2022/08/21 03:02:48;;;;;;;5.05;2.33;;;13.90;99.90;;;;;;5060343;28;20090;-79
2022/08/21 03:05:15;;;;;;;4.63;2.00;;;13.90;99.90;;;;;;5066973;28;20044;-79
2022/08/21 03:07:43;;;;;;;4.18;2.05;;;13.90;99.90;;;;;;5065397;28;20032;-79
2022/08/21 03:10:10;;;;;;;3.78;1.90;;;13.90;99.90;;;;;;5061923;28;20506;-79
2022/08/21 03:12:36;;;;;;;3.38;1.80;;;13.90;99.90;;;;;;5061838;28;20039;-79
2022/08/21 03:15:06;;;;;;;5.18;2.22;;;13.90;99.90;;;;;;5061200;28;20051;-79
2022/08/21 03:17:32;;;;;;;4.63;2.20;;;13.90;99.90;;;;;;5046997;28;20048;-79
2022/08/21 03:19:59;;;;;;;3.72;1.98;;;13.90;99.90;;;;;;5066652;28;20040;-79
2022/08/21 03:22:25;;;;;;;5.38;2.38;;;13.90;99.90;;;;;;5063311;28;20049;-79
2022/08/21 03:24:51;;;;;;;5.45;2.00;;;13.90;99.90;;;;;;5046418;28;20041;-81
2022/08/21 03:27:17;;;;;;;3.38;2.00;;;13.90;99.90;;;;;;5062619;28;20085;-82
2022/08/21 03:29:43;;;;;;;2.53;1.70;;;13.90;99.90;;;;;;5051187;28;20051;-81
2022/08/21 03:32:09;;;;;;;4.15;2.35;;;13.90;99.90;;;;;;5063365;28;20044;-81
2022/08/21 03:34:37;;;;;;;3.70;1.90;;;13.90;99.90;;;;;;5063106;28;20534;-81
2022/08/21 03:37:04;;;;;;;4.13;1.90;;;13.90;99.90;;;;;;5039543;28;20136;-81
2022/08/21 03:39:29;;;;;;;4.72;2.10;;;13.90;99.90;;;;;;5067157;28;20459;-81
2022/08/21 03:41:55;;;;;;;8.95;2.80;;;13.90;99.90;;;;;;5046409;28;20056;-80
2022/08/21 03:44:21;;;;;;;3.67;2.20;;;13.90;99.90;;;;;;5062880;28;20048;-80
2022/08/21 03:46:47;;;;;;;4.35;2.45;;;13.90;99.90;;;;;;5048030;28;20049;-80
2022/08/21 03:49:13;;;;;;;5.97;2.30;;;13.90;99.90;;;;;;5062640;28;20043;-80
2022/08/21 03:51:42;;;;;;;4.35;2.05;;;13.90;99.90;;;;;;5062038;28;20059;-80
2022/08/21 03:54:07;;;;;;;4.20;2.28;;;13.80;99.90;;;;;;5062144;28;20041;-80
2022/08/21 03:56:33;;;;;;;6.63;2.47;;;13.80;99.90;;;;;;5064449;28;20402;-80
2022/08/21 03:58:59;;;;;;;6.32;2.63;;;13.80;99.90;;;;;;5063341;28;20040;-79
2022/08/21 04:01:25;;;;;;;8.82;2.80;;;13.80;99.90;;;;;;5062611;28;20040;-79
2022/08/21 04:03:50;;;;;;;8.25;2.58;;;13.80;99.90;;;;;;5045853;28;20041;-79
2022/08/21 04:06:17;;;;;;;4.28;2.10;;;13.70;99.90;;;;;;5062313;28;20479;-79
2022/08/21 04:08:43;;;;;;;4.55;1.90;;;13.70;99.90;;;;;;5046292;28;20375;-79
2022/08/21 04:11:12;;;;;;;4.80;2.00;;;13.70;99.90;;;;;;5062229;28;20043;-79
2022/08/21 04:13:38;;;;;;;5.68;2.28;;;13.70;99.90;;;;;;5048102;28;20048;-79
2022/08/21 04:16:04;;;;;;;5.47;2.47;;;13.70;99.90;;;;;;5047821;28;20048;-79
2022/08/21 04:18:30;;;;;;;4.07;2.28;;;13.70;99.90;;;;;;5059581;28;20037;-79
2022/08/21 04:20:58;;;;;;;4.60;2.00;;;13.70;99.90;;;;;;5045760;28;20094;-79
2022/08/21 04:23:27;;;;;;;5.70;2.90;;;13.70;99.90;;;;;;5046040;28;20145;-79
2022/08/21 04:25:55;;;;;;;5.50;2.70;;;13.70;99.90;;;;;;5045200;28;20033;-79
2022/08/21 04:28:22;;;;;;;5.80;2.58;;;13.70;99.90;;;;;;5032777;28;20036;-79
2022/08/21 04:30:48;;;;;;;3.22;1.80;;;13.70;99.90;;;;;;5066388;28;20390;-79
2022/08/21 04:33:14;;;;;;;5.03;2.58;;;13.70;99.90;;;;;;5041252;28;20410;-79
2022/08/21 04:35:41;;;;;;;4.78;2.17;;;13.80;99.90;;;;;;5032811;28;20056;-79
2022/08/21 04:38:07;;;;;;;7.90;3.10;;;13.80;99.90;;;;;;5065869;28;20090;-79
2022/08/21 04:40:33;;;;;;;3.58;2.10;;;13.80;99.90;;;;;;5058264;28;20067;-79
2022/08/21 04:43:06;;;;;;;5.72;2.92;;;13.80;99.90;;;;;;5038056;28;20072;-79
2022/08/21 04:45:41;;;;;;;4.10;2.20;;;13.90;99.90;;;;;;5061492;28;20033;-79
2022/08/21 04:48:09;;;;;;;6.18;3.33;;;13.90;99.90;;;;;;5066994;28;20431;-81
2022/08/21 04:51:00;;;;;;;5.60;2.30;;;14.00;99.90;;;;;;5058117;28;20047;-82
2022/08/21 04:53:35;;;;;;;4.72;2.50;;;14.00;99.90;;;;;;5063739;28;20060;-81
2022/08/21 04:56:08;;;;;;;6.05;2.72;;;14.00;99.90;;;;;;5066209;28;20051;-81
2022/08/21 04:58:35;;;;;;;6.00;2.50;;;14.10;99.90;;;;;;5062547;28;20520;-81
2022/08/21 05:01:03;;;;;;;8.07;2.58;;;14.10;99.90;;;;;;5061402;28;20051;-81
2022/08/21 05:03:32;;;;;;;7.25;2.83;;;14.20;99.90;;;;;;5058916;28;20410;-80
2022/08/21 05:05:59;;;;;;;6.47;2.70;;;14.20;99.90;;;;;;5045394;28;20076;-80
2022/08/21 05:08:27;;;;;;;6.35;2.33;;;14.30;99.90;;;;;;5061672;28;20547;-80
2022/08/21 05:10:53;;;;;;;3.83;2.22;;;14.30;99.90;;;;;;5061823;28;20121;-80
2022/08/21 05:13:19;;;;;;;4.72;2.30;;;14.40;99.90;;;;;;5044704;28;20044;-80
2022/08/21 05:15:45;;;;;;;6.80;2.42;;;14.50;99.90;;;;;;5058031;28;20048;-80
2022/08/21 05:18:11;;;;;;;7.70;3.08;;;14.90;99.90;;;;;;5061883;28;20040;-80
2022/08/21 05:20:37;;;;;;;4.97;2.55;;;14.90;99.90;;;;;;5065953;28;20109;-80
2022/08/21 05:23:08;;;;;;;4.72;2.25;;;14.90;99.90;;;;;;5061147;28;20048;-80
2022/08/21 05:25:34;;;;;;;6.63;2.50;;;15.00;99.90;;;;;;5058002;28;20037;-79
2022/08/21 05:28:00;;;;;;;4.28;2.28;;;15.10;99.90;;;;;;5049796;28;20032;-79
2022/08/21 05:30:26;;;;;;;5.30;2.45;;;15.30;99.90;;;;;;5058253;28;20049;-79
2022/08/21 05:33:00;;;;;;;6.80;2.42;;;15.30;99.90;;;;;;5060313;28;20033;-79
2022/08/21 05:35:26;;;;;;;7.80;3.30;;;15.30;99.90;;;;;;5060873;28;20092;-79
2022/08/21 05:37:52;;;;;;;3.10;1.90;;;15.40;99.90;;;;;;5065687;28;20048;-81
2022/08/21 05:40:18;;;;;;;3.30;2.15;;;15.50;99.90;;;;;;5044877;28;20044;-81
2022/08/21 05:42:44;;;;;;;10.40;3.05;;;15.50;99.90;;;;;;5061139;28;20044;-81
2022/08/21 05:45:10;;;;;;;8.60;2.65;;;15.60;99.90;;;;;;5058047;28;20120;-81
2022/08/21 05:47:36;;;;;;;5.28;2.75;;;15.70;99.90;;;;;;5048784;28;20463;-81
2022/08/21 05:50:03;;;;;;;6.18;2.30;;;15.80;99.90;;;;;;5069421;28;20124;-81
2022/08/21 05:52:28;;;;;;;6.05;2.45;;;15.80;99.90;;;;;;5066021;28;20071;-81
2022/08/21 05:54:54;;;;;;;7.72;2.55;;;15.90;99.90;;;;;;5046415;28;20072;-81
2022/08/21 05:57:21;;;;;;;6.32;2.50;;;16.00;99.90;;;;;;5061194;28;20049;-81
2022/08/21 05:59:47;;;;;;;4.47;2.40;;;16.10;99.90;;;;;;5044799;28;20063;-81
2022/08/21 06:02:13;;;;;;;5.90;2.83;;;16.20;99.90;;;;;;5059970;28;20055;-81
2022/08/21 06:04:39;;;;;;;5.88;2.90;;;16.30;99.90;;;;;;5060982;28;20040;-81
2022/08/21 06:07:06;;;;;;;5.07;2.55;;;16.40;99.90;;;;;;5061357;28;20044;-81
2022/08/21 06:09:32;;;;;;;7.75;2.92;;;16.50;99.90;;;;;;5044309;28;20044;-81
2022/08/21 06:11:58;;;;;;;7.75;2.92;;;16.70;99.90;;;;;;5042454;28;20053;-82
2022/08/21 06:14:23;;;;;;;7.70;2.30;;;17.30;99.90;;;;;;5064340;28;20128;-82
2022/08/21 06:16:49;;;;;;;5.40;2.22;;;17.50;99.90;;;;;;5061007;28;20399;-82
2022/08/21 06:19:15;;;;;;;8.25;3.03;;;17.60;99.90;;;;;;5065986;28;20048;-82
2022/08/21 06:21:40;;;;;;;5.25;2.40;;;17.60;99.90;;;;;;5064915;28;20052;-81
2022/08/21 06:24:06;;;;;;;4.90;2.20;;;17.80;99.90;;;;;;5044409;28;20447;-82
2022/08/21 06:26:33;;;;;;;4.78;2.63;;;17.90;99.90;;;;;;5049177;28;20037;-82
2022/08/21 06:28:58;;;;;;;7.97;2.55;;;18.10;99.90;;;;;;5060325;28;20033;-82
2022/08/21 06:31:26;;;;;;;3.90;2.33;;;19.20;99.90;;;;;;5031554;28;20048;-81
2022/08/21 06:33:56;;;;;;;3.22;2.08;;;20.70;99.90;;;;;;5064739;28;20037;-82
2022/08/21 06:36:23;;;;;;;4.88;2.10;;;22.10;99.90;;;;;;5077008;28;20057;-82
2022/08/21 06:38:49;;;;;;;7.43;2.00;;;23.40;99.90;;;;;;5076705;28;20072;-82
2022/08/21 06:41:15;;;;;;;6.25;1.98;;;24.20;99.90;;;;;;5080710;28;20379;-82
2022/08/21 06:43:47;;;;;;;6.22;1.98;;;24.10;99.90;;;;;;5055275;28;20102;-82
2022/08/21 06:46:13;;;;;;;5.00;1.90;;;23.50;99.90;;;;;;5074411;28;20036;-82
2022/08/21 06:48:39;;;;;;;4.57;1.73;;;23.00;99.90;;;;;;5067757;22;20423;-81
2022/08/21 06:51:05;;;;;;;5.00;1.90;;;22.70;99.90;;;;;;5031103;28;20072;-80
2022/08/21 06:53:31;;;;;;;4.13;1.83;;;22.40;99.90;;;;;;4995432;28;20037;-80
2022/08/21 06:55:56;;;;;;;7.10;1.77;;;22.60;99.90;;;;;;5014658;28;20040;-80
2022/08/21 06:58:22;;;;;;;4.60;2.00;;;23.30;99.90;;;;;;5027096;28;20045;-80
2022/08/21 07:00:51;;;;;;;5.68;1.83;;;24.40;99.90;;;;;;4994461;28;20052;-81
2022/08/21 07:03:27;;;;;;;3.15;1.65;;;25.70;99.90;;;;;;5026562;28;20052;-81
2022/08/21 07:05:53;;;;;;;;;;;26.40;97.30;;;;;;5031765;28;20049;-81
2022/08/21 07:08:19;;;;;;;5.53;1.85;;;27.40;97.00;;;;;;5019769;28;20008;-81
2022/08/21 07:10:46;;;;;;;2.22;1.20;;;28.00;95.80;;;;;;5008048;28;20051;-81
2022/08/21 07:13:12;;;;;;;4.82;1.83;;;28.30;94.30;;;;;;5010639;28;20124;-81
2022/08/21 07:15:38;;;;;;;3.67;1.63;;;28.70;93.10;;;;;;5009499;28;20457;-81
2022/08/21 07:18:04;;;;;;;3.83;1.52;;;28.00;92.50;;;;;;5014758;28;20049;-80
2022/08/21 07:20:31;;;;;;;4.55;1.40;;;28.40;93.70;;;;;;5009859;28;20054;-80
2022/08/21 07:23:04;;;;;;;4.70;1.70;;;29.30;93.00;;;;;;5026593;28;20041;-80
2022/08/21 07:25:31;;;;;;;7.25;2.00;;;29.50;90.90;;;;;;5026377;28;20488;-80
2022/08/21 07:27:56;;;;;;;4.53;2.10;;;29.80;91.50;;;;;;5032024;28;20040;-80
2022/08/21 07:30:23;;;;;;;2.90;1.35;;;29.90;90.20;;;;;;5010148;28;20037;-80
2022/08/21 07:32:49;;;;;;;4.70;1.65;;;29.80;90.30;;;;;;5010171;28;20041;-80
2022/08/21 07:35:17;;;;;;;3.17;1.58;;;29.90;90.20;;;;;;5010101;28;20045;-81
2022/08/21 07:37:43;;;;;;;5.43;1.67;;;30.30;90.30;;;;;;4996522;28;20075;-81
2022/08/21 07:40:09;;;;;;;4.18;1.52;;;30.50;89.60;;;;;;5027865;28;20049;-82
2022/08/21 07:42:39;;;;;;;5.32;2.22;;;30.60;88.00;;;;;;5012211;28;20059;-82
2022/08/21 07:45:05;;;;;;;4.28;1.70;;;30.80;87.90;;;;;;5027358;28;20124;-82
2022/08/21 07:47:31;;;;;;;5.57;1.73;;;31.10;87.30;;;;;;5025820;28;20041;-82
2022/08/21 07:49:57;;;;;;;4.70;1.60;;;31.60;89.00;;;;;;5008113;28;20058;-81
2022/08/21 07:52:23;;;;;;;2.85;1.20;;;31.70;84.80;;;;;;4993298;28;20507;-81
2022/08/21 07:54:49;;;;;;;4.22;1.58;;;32.10;85.80;;;;;;5005922;28;20060;-81
2022/08/21 07:57:15;;;;;;;2.28;1.15;;;32.20;84.60;;;;;;4990186;28;20103;-80
2022/08/21 07:59:41;;;;;;;4.45;1.85;;;32.30;83.90;;;;;;5006675;28;20037;-81
2022/08/21 08:02:06;;;;;;;5.72;2.08;;;32.50;83.90;;;;;;4994237;28;20396;-80
2022/08/21 08:04:32;;;;;;;3.83;1.23;;;32.70;84.40;;;;;;5001835;28;20034;-80
2022/08/21 08:06:58;;;;;;;3.50;1.42;;;32.30;82.80;;;;;;5006111;28;20034;-80
2022/08/21 08:09:24;;;;;;;5.60;1.80;;;32.20;82.70;;;;;;5006131;28;20549;-80
2022/08/21 08:11:49;;;;;;;3.58;1.08;;;32.60;82.90;;;;;;5006204;28;20052;-80
2022/08/21 08:14:15;;;;;;;3.40;1.50;;;32.90;82.90;;;;;;4990030;28;20045;-80
2022/08/21 08:16:41;;;;;;;6.03;1.65;;;33.10;82.70;;;;;;5005751;28;20479;-80
2022/08/21 08:19:06;;;;;;;7.63;1.60;;;33.30;81.90;;;;;;5005880;28;20052;-80
2022/08/21 08:21:33;;;;;;;4.68;1.45;;;33.40;81.90;;;;;;5005711;28;20142;-80
2022/08/21 08:23:59;;;;;;;2.47;1.27;;;33.50;80.90;;;;;;5006691;28;20562;-80
2022/08/21 08:26:25;;;;;;;1.70;1.23;;;33.30;80.40;;;;;;5012352;28;20046;-80
2022/08/21 08:28:51;;;;;;;2.42;1.55;;;33.50;80.70;;;;;;4994413;28;20213;-80
2022/08/21 08:31:16;;;;;;;5.68;1.55;;;34.00;80.40;;;;;;5005550;28;20045;-80
2022/08/21 08:33:42;;;;;;;5.70;1.25;;;34.30;80.10;;;;;;4987746;28;20041;-80
2022/08/21 08:36:14;;;;;;;4.65;1.40;;;34.20;79.60;;;;;;5004943;28;20041;-80
2022/08/21 08:38:40;;;;;;;4.45;1.77;;;34.00;79.60;;;;;;5008189;28;20053;-80
2022/08/21 08:41:26;;;;;;;6.97;1.65;;;34.20;79.60;;;;;;5004972;28;20038;-80
2022/08/21 08:43:54;;;;;;;4.07;1.48;;;35.00;78.50;;;;;;4972436;28;20108;-81
2022/08/21 08:46:43;;;;;;;3.13;1.35;;;34.00;79.20;;;;;;5006969;28;20496;-80
2022/08/21 08:49:12;;;;;;;3.92;1.27;;;33.70;78.90;;;;;;5004773;28;20134;-80
2022/08/21 08:51:53;;;;;;;4.68;1.73;;;33.00;79.00;;;;;;5025552;28;20060;-80
2022/08/21 08:54:43;;;;;;;2.45;1.35;;;31.80;81.70;;;;;;5027519;28;20517;-81
2022/08/21 08:57:16;;;;;;;5.38;1.58;;;31.90;83.50;;;;;;5009304;28;20037;-83
2022/08/21 08:59:44;;;;;;;2.45;1.20;;;32.70;81.60;;;;;;5024924;28;20363;-83
2022/08/21 09:02:12;;;;;;;3.60;1.25;;;33.40;80.30;;;;;;5024599;28;20099;-83
2022/08/21 09:04:38;;;;;;;4.50;1.80;;;33.50;79.70;;;;;;5023747;28;20037;-83
2022/08/21 09:07:20;;;;;;;3.17;1.30;;;33.80;80.20;;;;;;5024445;28;20080;-83
2022/08/21 09:09:54;;;;;;;1.73;1.20;;;34.30;78.90;;;;;;5024559;28;20120;-83
2022/08/21 09:12:44;;;;;;;5.53;2.55;;;34.70;77.50;;;;;;5012022;28;20094;-83
2022/08/21 09:15:18;;;;;;;4.55;1.45;;;33.70;78.90;;;;;;5028734;28;20127;-83
2022/08/21 09:17:52;;;;;;;2.42;1.13;;;33.00;79.40;;;;;;5028094;28;20044;-83
2022/08/21 09:20:27;;;;;;;3.63;1.40;;;32.40;80.50;;;;;;5008040;28;20041;-83
2022/08/21 09:23:12;;;;;;;2.30;1.10;;;31.50;82.70;;;;;;5024373;28;20042;-83
2022/08/21 09:26:04;;;;;;;6.93;2.05;;;31.40;83.00;;;;;;5007896;28;20052;-83
2022/08/21 09:28:36;;;;;;;2.95;1.70;;;31.00;82.50;;;;;;5021381;28;20052;-83
2022/08/21 09:31:24;;;;;;;5.03;1.58;;;30.60;82.50;;;;;;5008353;28;20072;-80
2022/08/21 09:33:50;;;;;;;4.40;1.42;;;29.80;84.20;;;;;;5011533;28;20132;-80
2022/08/21 09:36:43;;;;;;;4.30;1.13;;;29.80;84.10;;;;;;5024764;28;20127;-80
2022/08/21 09:39:11;;;;;;;2.88;1.15;;;30.20;83.60;;;;;;5024921;28;20045;-80
2022/08/21 09:41:39;;;;;;;5.07;2.08;;;29.60;83.30;;;;;;5023977;28;20046;-80
2022/08/21 09:44:06;;;;;;;4.35;1.23;;;28.90;85.30;;;;;;5042755;28;20116;-80
2022/08/21 09:46:32;;;;;;;3.45;1.30;;;28.70;88.80;;;;;;5024614;28;20426;-80
2022/08/21 09:49:01;;;;;;;3.38;1.45;;;29.60;86.20;;;;;;5007826;28;20049;-83
2022/08/21 09:51:34;;;;;;;4.30;1.48;;;29.90;84.00;;;;;;5014079;28;20047;-83
2022/08/21 09:54:08;;;;;;;2.65;1.42;;;29.60;84.00;;;;;;5012152;28;20132;-83
2022/08/21 09:59:37;;;;;;;3.40;1.58;;;28.20;86.90;;;;;;5028174;28;20059;-83
2022/08/21 10:02:29;;;;;;;6.28;1.75;;;27.20;89.50;;;;;;5017379;28;20037;-82
2022/08/21 10:05:00;;;;;;;6.57;1.77;;;26.50;90.60;;;;;;5000104;28;20075;-82
2022/08/21 10:07:28;;;;;;;4.95;1.70;;;25.80;91.10;;;;;;5024059;28;20495;-82
2022/08/21 10:10:04;;;;;;;3.38;1.10;;;25.40;92.50;;;;;;5021839;28;20048;-82
2022/08/21 10:12:50;;;;;;;5.40;1.65;;;25.90;91.20;;;;;;5032657;28;20049;-82
2022/08/21 10:15:24;;;;;;;4.85;1.10;;;26.00;91.30;;;;;;5013425;28;20045;-82
2022/08/21 10:18:14;;;;;;;3.25;1.60;;;25.50;91.80;;;;;;5027969;28;20119;-82
2022/08/21 10:20:44;;;;;;;3.50;1.33;;;25.70;92.90;;;;;;5027803;28;20042;-80
2022/08/21 10:23:16;;;;;;;3.88;1.40;;;27.10;91.90;;;;;;5014775;28;20483;-80
2022/08/21 10:25:51;;;;;;;4.40;1.40;;;28.40;90.80;;;;;;5011135;28;20490;-80
2022/08/21 10:28:31;;;;;;;3.70;1.17;;;29.60;87.10;;;;;;5010239;28;20040;-80
2022/08/21 10:31:20;;;;;;;4.18;1.42;;;30.00;85.20;;;;;;5023538;28;20092;-80
2022/08/21 10:34:01;;;;;;;3.88;1.27;;;30.50;85.00;;;;;;4990373;28;20056;-80
2022/08/21 10:36:33;;;;;;;3.78;1.10;;;31.50;83.00;;;;;;5028621;28;20070;-80
2022/08/21 10:39:13;;;;;;;4.43;1.58;;;32.60;82.30;;;;;;5026694;28;20049;-80
2022/08/21 10:41:57;;;;;;;3.88;1.60;;;33.70;79.60;;;;;;5010051;28;20049;-80
2022/08/21 10:44:45;;;;;;;2.20;1.17;;;33.30;76.40;;;;;;5027841;28;20069;-81
2022/08/21 10:47:18;;;;;;;3.33;1.73;;;32.00;78.10;;;;;;5026876;28;20040;-80
2022/08/21 10:49:47;;;;;;;5.18;1.88;;;31.10;79.90;;;;;;5014700;28;20055;-81
2022/08/21 10:52:13;;;;;;;3.65;1.30;;;30.00;81.60;;;;;;5032916;28;20117;-81
2022/08/21 10:54:56;;;;;;;2.55;1.08;;;29.80;83.00;;;;;;5033717;28;20113;-80
2022/08/21 10:57:40;;;;;;;2.45;1.20;;;30.20;83.70;;;;;;5032342;28;20045;-81
2022/08/21 11:00:11;;;;;;;4.15;1.60;;;31.20;81.20;;;;;;5016879;28;20115;-80
2022/08/21 11:03:08;;;;;;;2.25;1.25;;;31.80;77.50;;;;;;5033109;28;20041;-81
2022/08/21 11:05:43;;;;;;;2.65;1.50;;;31.00;75.10;;;;;;4981953;28;20425;-80
2022/08/21 11:08:35;;;;;;;3.60;1.10;;;30.20;77.40;;;;;;5029829;28;20056;-81
2022/08/21 11:11:19;;;;;;;4.78;1.20;;;30.80;77.60;;;;;;5036789;28;20391;-80
2022/08/21 11:14:06;;;;;;;5.57;0.87;;;31.80;75.90;;;;;;5034460;28;20048;-81
2022/08/21 11:16:46;;;;;;;2.78;1.10;;;32.30;75.50;;;;;;5031116;28;20051;-81
2022/08/21 11:19:38;;;;;;;2.72;1.00;;;32.00;76.00;;;;;;5019521;28;20049;-81
2022/08/21 11:22:14;;;;;;;4.05;1.52;;;30.80;77.10;;;;;;5031612;28;20041;-81
2022/08/21 11:24:59;;;;;;;3.22;1.17;;;29.30;79.50;;;;;;5033338;28;20505;-81
2022/08/21 11:27:47;;;;;;;5.63;1.45;;;28.40;81.30;;;;;;5030845;28;20045;-83
2022/08/21 11:30:13;;;;;;;1.50;1.00;;;27.50;83.00;;;;;;5022218;28;20099;-83
2022/08/21 11:33:04;;;;;;;1.85;1.13;;;26.80;84.20;;;;;;5018681;28;20084;-83
2022/08/21 11:35:54;;;;;;;4.00;1.13;;;26.80;86.80;;;;;;5034261;28;20045;-83
2022/08/21 11:38:40;;;;;;;3.33;1.20;;;27.60;85.50;;;;;;5026236;28;20044;-83
2022/08/21 11:41:24;;;;;;;;;;;28.70;84.50;;;;;;5026572;28;20143;-83
2022/08/21 11:44:19;;;;;;;2.75;0.95;;;29.40;80.70;;;;;;5009598;28;19921;-81
2022/08/21 11:46:58;;;;;;;0.93;0.77;;;30.40;80.00;;;;;;5025535;28;20061;-81
2022/08/21 11:49:26;;;;;;;1.95;0.88;;;30.70;80.60;;;;;;5021558;28;20050;-81
2022/08/21 11:51:52;;;;;;;6.45;1.05;;;31.10;80.00;;;;;;5025433;28;20053;-81
2022/08/21 11:55:09;;;;;;;2.03;1.00;;;30.80;80.10;;;;;;5008502;28;20052;-81
2022/08/21 11:57:46;;;;;;;2.22;1.30;;;30.50;79.00;;;;;;4967626;28;20715;-80
2022/08/21 12:00:28;;;;;;;1.95;1.08;;;29.60;80.30;;;;;;4994274;28;20129;-82
2022/08/21 12:03:11;;;;;;;2.00;0.80;;;29.00;81.80;;;;;;4999670;28;20049;-83
2022/08/21 12:05:42;;;;;;;4.65;1.42;;;28.50;83.30;;;;;;5026281;28;20041;-83
2022/08/21 12:08:25;;;;;;;1.75;0.75;;;28.30;81.10;;;;;;5013291;28;20037;-83
2022/08/21 12:11:22;;;;;;;2.42;1.30;;;28.10;81.60;;;;;;5025905;28;20037;-83
2022/08/21 12:14:06;;;;;;;;;;;27.90;82.20;;;;;;5007651;28;20080;-83
2022/08/21 12:16:33;;;;;;;2.90;1.20;;;27.40;83.00;;;;;;5022082;28;19917;-83
2022/08/21 12:19:10;;;;;;;4.20;1.17;;;27.10;82.80;;;;;;5009145;28;20045;-80
2022/08/21 12:21:54;;;;;;;3.50;1.30;;;27.00;83.70;;;;;;5008844;28;20049;-81
2022/08/21 12:24:38;;;;;;;1.17;0.80;;;27.10;84.70;;;;;;5030950;28;20502;-81
2022/08/21 12:27:28;;;;;;;2.83;1.00;;;27.30;85.40;;;;;;5029686;28;20053;-81
2022/08/21 12:30:02;;;;;;;1.55;0.95;;;27.60;84.50;;;;;;5025361;28;20042;-80
2022/08/21 12:32:46;;;;;;;2.92;1.00;;;28.00;81.40;;;;;;5025424;28;20029;-80
2022/08/21 12:35:20;;;;;;;2.00;0.95;;;27.90;81.90;;;;;;5022447;28;20447;-80
2022/08/21 12:37:57;;;;;;;4.88;1.48;;;27.40;83.00;;;;;;5024860;28;20132;-81
2022/08/21 12:40:27;;;;;;;2.70;1.05;;;27.20;84.40;;;;;;5008763;28;20566;-80
2022/08/21 12:42:56;;;;;;;2.53;1.30;;;26.90;84.80;;;;;;5024030;28;20033;-80
2022/08/21 12:45:33;;;;;;;2.85;1.08;;;26.50;85.20;;;;;;5028064;28;20041;-81
2022/08/21 12:48:24;;;;;;;2.38;0.80;;;26.30;86.20;;;;;;5025574;28;20503;-81
2022/08/21 12:50:53;;;;;;;4.15;1.25;;;26.00;86.50;;;;;;5021438;28;20046;-83
2022/08/21 12:53:35;;;;;;;3.15;1.63;;;25.90;87.80;;;;;;5004929;28;20057;-83
2022/08/21 12:56:03;;;;;;;2.28;0.95;;;25.70;89.10;;;;;;5021694;28;20121;-83
2022/08/21 12:58:30;;;;;;;2.72;1.25;;;25.50;90.20;;;;;;4988686;28;20046;-83
2022/08/21 13:01:04;;;;;;;4.63;1.45;;;25.40;90.10;;;;;;5022039;28;20041;-83
2022/08/21 13:03:33;;;;;;;1.35;0.95;;;25.40;90.30;;;;;;5005235;28;20088;-83
2022/08/21 13:05:59;;;;;;;3.80;0.88;;;25.60;90.90;;;;;;5025572;28;20121;-83
2022/08/21 13:08:26;;;;;;;1.02;0.80;;;25.60;90.40;;;;;;5007703;28;20124;-82